sensor_id;sensor_type;location;lat;lon;timestamp;pressure;altitude;pressure_sealevel;temperature;humidity
82784;BME280;72520;55.762;37.780;2023-11-21T00:02:26;99464.16;;;-5.55;62.09
82784;BME280;72520;55.762;37.780;2023-11-21T00:05:29;99462.34;;;-5.47;61.11
82784;BME280;72520;55.762;37.780;2023-11-21T00:08:32;99456.31;;;-5.44;61.78
82784;BME280;72520;55.762;37.780;2023-11-21T00:11:34;99458.84;;;-5.40;62.13
82784;BME280;72520;55.762;37.780;2023-11-21T00:14:40;99463.22;;;-5.45;61.94
82784;BME280;72520;55.762;37.780;2023-11-21T00:17:43;99460.56;;;-5.34;61.71
82784;BME280;72520;55.762;37.780;2023-11-21T00:20:45;99458.72;;;-5.23;61.13
82784;BME280;72520;55.762;37.780;2023-11-21T00:23:48;99463.91;;;-5.22;60.94
82784;BME280;72520;55.762;37.780;2023-11-21T00:26:50;99463.88;;;-5.19;61.01
82784;BME280;72520;55.762;37.780;2023-11-21T00:29:55;99454.44;;;-5.29;61.17
82784;BME280;72520;55.762;37.780;2023-11-21T00:32:58;99451.94;;;-5.39;61.50
82784;BME280;72520;55.762;37.780;2023-11-21T00:36:00;99454.44;;;-5.26;60.32
82784;BME280;72520;55.762;37.780;2023-11-21T00:39:03;99458.75;;;-5.26;60.56
82784;BME280;72520;55.762;37.780;2023-11-21T00:42:07;99456.16;;;-5.26;60.06
82784;BME280;72520;55.762;37.780;2023-11-21T00:45:11;99454.44;;;-5.27;60.49
82784;BME280;72520;55.762;37.780;2023-11-21T00:48:14;99456.03;;;-5.13;59.60
82784;BME280;72520;55.762;37.780;2023-11-21T00:51:17;99444.19;;;-5.44;60.88
82784;BME280;72520;55.762;37.780;2023-11-21T00:54:20;99452.78;;;-5.37;61.06
82784;BME280;72520;55.762;37.780;2023-11-21T00:57:23;99449.25;;;-5.26;60.11
82784;BME280;72520;55.762;37.780;2023-11-21T01:00:27;99447.47;;;-5.21;60.48
82784;BME280;72520;55.762;37.780;2023-11-21T01:03:29;99448.44;;;-5.34;60.16
82784;BME280;72520;55.762;37.780;2023-11-21T01:06:32;99446.00;;;-5.52;61.26
82784;BME280;72520;55.762;37.780;2023-11-21T01:09:35;99456.34;;;-5.49;61.17
82784;BME280;72520;55.762;37.780;2023-11-21T01:12:38;99461.50;;;-5.47;61.23
82784;BME280;72520;55.762;37.780;2023-11-21T01:15:42;99454.44;;;-5.30;62.10
82784;BME280;72520;55.762;37.780;2023-11-21T01:18:45;99448.31;;;-5.19;60.65
82784;BME280;72520;55.762;37.780;2023-11-21T01:21:47;99451.72;;;-5.12;59.91
82784;BME280;72520;55.762;37.780;2023-11-21T01:24:50;99440.38;;;-5.03;59.40
82784;BME280;72520;55.762;37.780;2023-11-21T01:27:52;99441.38;;;-5.17;60.55
82784;BME280;72520;55.762;37.780;2023-11-21T01:30:56;99439.66;;;-5.15;59.95
82784;BME280;72520;55.762;37.780;2023-11-21T01:33:59;99446.69;;;-5.33;60.28
82784;BME280;72520;55.762;37.780;2023-11-21T01:37:02;99440.75;;;-5.47;61.70
82784;BME280;72520;55.762;37.780;2023-11-21T01:40:07;99442.34;;;-5.28;60.17
82784;BME280;72520;55.762;37.780;2023-11-21T01:43:12;99441.44;;;-5.21;59.83
82784;BME280;72520;55.762;37.780;2023-11-21T01:46:16;99443.09;;;-5.14;60.03
82784;BME280;72520;55.762;37.780;2023-11-21T01:49:19;99456.31;;;-5.46;60.46
82784;BME280;72520;55.762;37.780;2023-11-21T01:52:22;99445.84;;;-5.31;59.98
82784;BME280;72520;55.762;37.780;2023-11-21T01:55:25;99446.72;;;-5.36;60.69
82784;BME280;72520;55.762;37.780;2023-11-21T01:58:30;99441.50;;;-5.29;59.91
82784;BME280;72520;55.762;37.780;2023-11-21T02:01:34;99456.22;;;-5.34;60.23
82784;BME280;72520;55.762;37.780;2023-11-21T02:04:37;99454.44;;;-5.26;59.55
82784;BME280;72520;55.762;37.780;2023-11-21T02:07:41;99449.22;;;-5.27;59.56
82784;BME280;72520;55.762;37.780;2023-11-21T02:10:44;99454.31;;;-5.14;59.83
82784;BME280;72520;55.762;37.780;2023-11-21T02:13:47;99446.75;;;-5.41;59.54
82784;BME280;72520;55.762;37.780;2023-11-21T02:16:53;99444.91;;;-5.27;58.88
82784;BME280;72520;55.762;37.780;2023-11-21T02:19:56;99445.78;;;-5.25;58.68
82784;BME280;72520;55.762;37.780;2023-11-21T02:23:20;99438.00;;;-5.26;59.06
82784;BME280;72520;55.762;37.780;2023-11-21T02:26:24;99436.25;;;-5.21;58.97
82784;BME280;72520;55.762;37.780;2023-11-21T02:29:27;99450.94;;;-5.23;59.68
82784;BME280;72520;55.762;37.780;2023-11-21T02:32:29;99456.13;;;-5.23;58.31
82784;BME280;72520;55.762;37.780;2023-11-21T02:35:32;99447.47;;;-5.21;58.67
82784;BME280;72520;55.762;37.780;2023-11-21T02:38:37;99441.47;;;-5.26;58.48
82784;BME280;72520;55.762;37.780;2023-11-21T02:41:40;99447.44;;;-5.18;58.28
82784;BME280;72520;55.762;37.780;2023-11-21T02:44:43;99442.25;;;-5.15;57.59
82784;BME280;72520;55.762;37.780;2023-11-21T02:47:45;99445.63;;;-5.09;58.82
82784;BME280;72520;55.762;37.780;2023-11-21T02:50:48;99448.19;;;-5.06;57.40
82784;BME280;72520;55.762;37.780;2023-11-21T02:53:53;99456.03;;;-5.11;57.45
82784;BME280;72520;55.762;37.780;2023-11-21T02:56:55;99456.91;;;-5.10;57.09
82784;BME280;72520;55.762;37.780;2023-11-21T02:59:58;99465.56;;;-5.16;58.23
82784;BME280;72520;55.762;37.780;2023-11-21T03:03:01;99467.28;;;-5.12;57.80
82784;BME280;72520;55.762;37.780;2023-11-21T03:06:04;99468.38;;;-5.39;59.15
82784;BME280;72520;55.762;37.780;2023-11-21T03:09:10;99471.81;;;-5.40;58.54
82784;BME280;72520;55.762;37.780;2023-11-21T03:12:13;99478.81;;;-5.51;58.55
82784;BME280;72520;55.762;37.780;2023-11-21T03:15:17;99486.59;;;-5.49;58.64
82784;BME280;72520;55.762;37.780;2023-11-21T03:18:20;99484.81;;;-5.47;57.85
82784;BME280;72520;55.762;37.780;2023-11-21T03:21:23;99470.09;;;-5.44;58.29
82784;BME280;72520;55.762;37.780;2023-11-21T03:24:27;99473.44;;;-5.27;57.40
82784;BME280;72520;55.762;37.780;2023-11-21T03:27:29;99484.88;;;-5.53;58.91
82784;BME280;72520;55.762;37.780;2023-11-21T03:30:34;99478.63;;;-5.25;57.64
82784;BME280;72520;55.762;37.780;2023-11-21T03:33:50;99477.91;;;-5.47;57.51
82784;BME280;72520;55.762;37.780;2023-11-21T03:36:54;99489.91;;;-5.32;57.34
82784;BME280;72520;55.762;37.780;2023-11-21T03:39:58;99500.38;;;-5.47;58.21
82784;BME280;72520;55.762;37.780;2023-11-21T03:43:00;99502.94;;;-5.38;58.15
82784;BME280;72520;55.762;37.780;2023-11-21T03:46:04;99504.63;;;-5.36;57.62
82784;BME280;72520;55.762;37.780;2023-11-21T03:49:07;99502.19;;;-5.60;58.96
82784;BME280;72520;55.762;37.780;2023-11-21T03:52:11;99504.69;;;-5.42;58.12
82784;BME280;72520;55.762;37.780;2023-11-21T03:55:15;99506.41;;;-5.44;59.24
82784;BME280;72520;55.762;37.780;2023-11-21T03:58:18;99508.22;;;-5.52;59.99
82784;BME280;72520;55.762;37.780;2023-11-21T04:01:21;99502.09;;;-5.42;60.91
82784;BME280;72520;55.762;37.780;2023-11-21T04:04:24;99503.00;;;-5.49;59.94
82784;BME280;72520;55.762;37.780;2023-11-21T04:07:26;99508.19;;;-5.50;60.53
82784;BME280;72520;55.762;37.780;2023-11-21T04:10:30;99503.00;;;-5.49;59.45
82784;BME280;72520;55.762;37.780;2023-11-21T04:13:33;99501.34;;;-5.59;59.98
82784;BME280;72520;55.762;37.780;2023-11-21T04:16:35;99504.81;;;-5.63;60.30
82784;BME280;72520;55.762;37.780;2023-11-21T04:19:38;99503.88;;;-5.48;60.69
82784;BME280;72520;55.762;37.780;2023-11-21T04:22:44;99503.09;;;-5.66;60.69
82784;BME280;72520;55.762;37.780;2023-11-21T04:25:51;99503.03;;;-5.52;60.09
82784;BME280;72520;55.762;37.780;2023-11-21T04:28:57;99512.63;;;-5.69;61.29
82784;BME280;72520;55.762;37.780;2023-11-21T04:31:59;99508.28;;;-5.67;61.35
82784;BME280;72520;55.762;37.780;2023-11-21T04:35:04;99508.22;;;-5.56;59.73
82784;BME280;72520;55.762;37.780;2023-11-21T04:38:07;99501.31;;;-5.56;59.62
82784;BME280;72520;55.762;37.780;2023-11-21T04:41:11;99510.81;;;-5.52;59.37
82784;BME280;72520;55.762;37.780;2023-11-21T04:44:16;99519.44;;;-5.53;59.83
82784;BME280;72520;55.762;37.780;2023-11-21T04:47:19;99521.16;;;-5.53;59.59
82784;BME280;72520;55.762;37.780;2023-11-21T04:50:22;99528.91;;;-5.50;59.29
82784;BME280;72520;55.762;37.780;2023-11-21T04:53:25;99527.25;;;-5.60;60.35
82784;BME280;72520;55.762;37.780;2023-11-21T04:56:29;99522.00;;;-5.50;60.38
82784;BME280;72520;55.762;37.780;2023-11-21T04:59:31;99529.88;;;-5.65;60.82
82784;BME280;72520;55.762;37.780;2023-11-21T05:02:34;99528.94;;;-5.52;60.33
82784;BME280;72520;55.762;37.780;2023-11-21T05:05:41;99537.66;;;-5.62;60.58
82784;BME280;72520;55.762;37.780;2023-11-21T05:08:44;99532.31;;;-5.41;60.72
82784;BME280;72520;55.762;37.780;2023-11-21T05:11:48;99532.22;;;-5.27;60.58
82784;BME280;72520;55.762;37.780;2023-11-21T05:14:51;99540.88;;;-5.25;59.36
82784;BME280;72520;55.762;37.780;2023-11-21T05:17:54;99538.31;;;-5.28;59.17
82784;BME280;72520;55.762;37.780;2023-11-21T05:20:56;99543.47;;;-5.27;59.41
82784;BME280;72520;55.762;37.780;2023-11-21T05:23:59;99541.03;;;-5.54;60.28
82784;BME280;72520;55.762;37.780;2023-11-21T05:27:05;99545.28;;;-5.44;60.49
82784;BME280;72520;55.762;37.780;2023-11-21T05:30:08;99538.34;;;-5.34;60.14
82784;BME280;72520;55.762;37.780;2023-11-21T05:33:14;99538.38;;;-5.39;59.78
82784;BME280;72520;55.762;37.780;2023-11-21T05:36:16;99535.78;;;-5.39;59.94
82784;BME280;72520;55.762;37.780;2023-11-21T05:39:19;99534.03;;;-5.37;59.78
82784;BME280;72520;55.762;37.780;2023-11-21T05:42:24;99535.75;;;-5.36;59.78
82784;BME280;72520;55.762;37.780;2023-11-21T05:45:26;99536.69;;;-5.47;60.33
82784;BME280;72520;55.762;37.780;2023-11-21T05:48:31;99541.94;;;-5.64;61.65
82784;BME280;72520;55.762;37.780;2023-11-21T05:51:33;99544.50;;;-5.52;60.90
82784;BME280;72520;55.762;37.780;2023-11-21T05:54:36;99540.91;;;-5.33;61.04
82784;BME280;72520;55.762;37.780;2023-11-21T05:57:42;99547.81;;;-5.29;60.99
82784;BME280;72520;55.762;37.780;2023-11-21T06:00:44;99553.81;;;-5.21;60.12
82784;BME280;72520;55.762;37.780;2023-11-21T06:03:47;99552.13;;;-5.29;60.86
82784;BME280;72520;55.762;37.780;2023-11-21T06:06:51;99568.75;;;-5.62;61.41
82784;BME280;72520;55.762;37.780;2023-11-21T06:09:53;99564.41;;;-5.65;62.54
82784;BME280;72520;55.762;37.780;2023-11-21T06:12:57;99573.94;;;-5.62;62.58
82784;BME280;72520;55.762;37.780;2023-11-21T06:16:00;99572.94;;;-5.40;62.20
82784;BME280;72520;55.762;37.780;2023-11-21T06:19:03;99579.00;;;-5.44;62.88
82784;BME280;72520;55.762;37.780;2023-11-21T06:22:06;99576.38;;;-5.36;62.42
82784;BME280;72520;55.762;37.780;2023-11-21T06:25:10;99572.00;;;-5.30;62.58
82784;BME280;72520;55.762;37.780;2023-11-21T06:28:15;99567.72;;;-5.32;63.94
82784;BME280;72520;55.762;37.780;2023-11-21T06:31:19;99572.81;;;-5.17;61.70
82784;BME280;72520;55.762;37.780;2023-11-21T06:34:23;99571.91;;;-5.13;61.14
82784;BME280;72520;55.762;37.780;2023-11-21T06:37:26;99582.28;;;-5.11;61.34
82784;BME280;72520;55.762;37.780;2023-11-21T06:40:28;99576.28;;;-5.18;61.67
82784;BME280;72520;55.762;37.780;2023-11-21T06:43:32;99575.34;;;-5.09;61.78
82784;BME280;72520;55.762;37.780;2023-11-21T06:46:35;99580.56;;;-5.13;61.81
82784;BME280;72520;55.762;37.780;2023-11-21T06:49:39;99576.25;;;-5.17;62.10
82784;BME280;72520;55.762;37.780;2023-11-21T06:52:42;99578.00;;;-5.17;61.90
82784;BME280;72520;55.762;37.780;2023-11-21T06:55:46;99580.63;;;-5.23;62.45
82784;BME280;72520;55.762;37.780;2023-11-21T06:58:50;99570.97;;;-5.03;62.48
82784;BME280;72520;55.762;37.780;2023-11-21T07:01:55;99574.38;;;-4.96;62.30
82784;BME280;72520;55.762;37.780;2023-11-21T07:04:57;99569.25;;;-5.01;61.23
82784;BME280;72520;55.762;37.780;2023-11-21T07:08:00;99578.06;;;-5.25;62.50
82784;BME280;72520;55.762;37.780;2023-11-21T07:11:05;99582.34;;;-5.21;62.32
82784;BME280;72520;55.762;37.780;2023-11-21T07:14:10;99584.00;;;-5.09;61.81
82784;BME280;72520;55.762;37.780;2023-11-21T07:17:13;99579.72;;;-5.15;62.08
82784;BME280;72520;55.762;37.780;2023-11-21T07:20:16;99587.44;;;-5.08;62.35
82784;BME280;72520;55.762;37.780;2023-11-21T07:23:19;99588.22;;;-4.94;61.90
82784;BME280;72520;55.762;37.780;2023-11-21T07:26:23;99591.72;;;-5.01;61.38
82784;BME280;72520;55.762;37.780;2023-11-21T07:29:28;99587.34;;;-4.96;61.15
82784;BME280;72520;55.762;37.780;2023-11-21T07:32:31;99590.75;;;-4.84;60.36
82784;BME280;72520;55.762;37.780;2023-11-21T07:35:35;99588.16;;;-4.88;60.73
82784;BME280;72520;55.762;37.780;2023-11-21T07:38:37;99588.06;;;-4.76;59.93
82784;BME280;72520;55.762;37.780;2023-11-21T07:41:41;99586.31;;;-4.73;59.98
82784;BME280;72520;55.762;37.780;2023-11-21T07:44:54;99589.69;;;-4.62;59.32
82784;BME280;72520;55.762;37.780;2023-11-21T07:47:57;99589.56;;;-4.46;58.72
82784;BME280;72520;55.762;37.780;2023-11-21T07:51:02;99589.63;;;-4.55;58.80
82784;BME280;72520;55.762;37.780;2023-11-21T07:54:05;99583.56;;;-4.53;58.49
82784;BME280;72520;55.762;37.780;2023-11-21T07:57:09;99580.03;;;-4.49;58.37
82784;BME280;72520;55.762;37.780;2023-11-21T08:00:16;99580.28;;;-4.73;60.19
82784;BME280;72520;55.762;37.780;2023-11-21T08:03:19;99568.91;;;-4.60;59.44
82784;BME280;72520;55.762;37.780;2023-11-21T08:06:22;99574.06;;;-4.52;59.25
82784;BME280;72520;55.762;37.780;2023-11-21T08:09:25;99576.59;;;-4.48;58.61
82784;BME280;72520;55.762;37.780;2023-11-21T08:12:27;99580.03;;;-4.43;57.86
82784;BME280;72520;55.762;37.780;2023-11-21T08:15:31;99577.38;;;-4.40;57.73
82784;BME280;72520;55.762;37.780;2023-11-21T08:18:34;99584.25;;;-4.34;57.62
82784;BME280;72520;55.762;37.780;2023-11-21T08:21:37;99573.75;;;-4.25;57.51
82784;BME280;72520;55.762;37.780;2023-11-21T08:24:41;99573.88;;;-4.33;58.28
82784;BME280;72520;55.762;37.780;2023-11-21T08:27:44;99571.97;;;-4.16;57.03
82784;BME280;72520;55.762;37.780;2023-11-21T08:30:48;99574.63;;;-4.23;56.36
82784;BME280;72520;55.762;37.780;2023-11-21T08:33:50;99576.19;;;-4.07;57.79
82784;BME280;72520;55.762;37.780;2023-11-21T08:36:54;99574.00;;;-4.46;56.27
82784;BME280;72520;55.762;37.780;2023-11-21T08:40:04;99570.53;;;-4.48;57.10
82784;BME280;72520;55.762;37.780;2023-11-21T08:43:11;99566.41;;;-4.71;57.42
82784;BME280;72520;55.762;37.780;2023-11-21T08:46:17;99562.78;;;-4.51;57.86
82784;BME280;72520;55.762;37.780;2023-11-21T08:49:20;99567.84;;;-4.38;58.96
82784;BME280;72520;55.762;37.780;2023-11-21T08:52:23;99566.31;;;-4.60;57.92
82784;BME280;72520;55.762;37.780;2023-11-21T08:55:25;99577.63;;;-4.67;57.85
82784;BME280;72520;55.762;37.780;2023-11-21T08:58:30;99585.38;;;-4.61;56.63
82784;BME280;72520;55.762;37.780;2023-11-21T09:01:35;99591.41;;;-4.56;57.20
82784;BME280;72520;55.762;37.780;2023-11-21T09:04:37;99590.59;;;-4.64;57.79
82784;BME280;72520;55.762;37.780;2023-11-21T09:07:41;99587.25;;;-4.81;57.64
82784;BME280;72520;55.762;37.780;2023-11-21T09:10:45;99593.25;;;-4.73;58.10
82784;BME280;72520;55.762;37.780;2023-11-21T09:13:48;99597.38;;;-4.46;56.89
82784;BME280;72520;55.762;37.780;2023-11-21T09:16:53;99593.84;;;-4.39;56.68
82784;BME280;72520;55.762;37.780;2023-11-21T09:19:57;99593.00;;;-4.43;57.28
82784;BME280;72520;55.762;37.780;2023-11-21T09:22:59;99595.59;;;-4.43;57.80
82784;BME280;72520;55.762;37.780;2023-11-21T09:26:02;99595.66;;;-4.52;56.63
82784;BME280;72520;55.762;37.780;2023-11-21T09:29:06;99590.50;;;-4.53;56.60
82784;BME280;72520;55.762;37.780;2023-11-21T09:32:12;99596.50;;;-4.47;56.53
82784;BME280;72520;55.762;37.780;2023-11-21T09:35:17;99593.06;;;-4.52;57.15
82784;BME280;72520;55.762;37.780;2023-11-21T09:38:20;99599.97;;;-4.46;57.01
82784;BME280;72520;55.762;37.780;2023-11-21T09:41:28;99606.88;;;-4.47;57.26
82784;BME280;72520;55.762;37.780;2023-11-21T09:44:44;99610.25;;;-4.37;57.21
82784;BME280;72520;55.762;37.780;2023-11-21T09:47:52;99603.31;;;-4.34;57.54
82784;BME280;72520;55.762;37.780;2023-11-21T09:50:57;99605.84;;;-4.28;57.29
82784;BME280;72520;55.762;37.780;2023-11-21T09:54:02;99611.91;;;-4.26;57.40
82784;BME280;72520;55.762;37.780;2023-11-21T09:57:07;99613.53;;;-4.17;56.53
82784;BME280;72520;55.762;37.780;2023-11-21T10:00:12;99610.97;;;-4.22;57.81
82784;BME280;72520;55.762;37.780;2023-11-21T10:03:20;99607.44;;;-4.15;57.17
82784;BME280;72520;55.762;37.780;2023-11-21T10:06:22;99616.09;;;-4.14;57.54
82784;BME280;72520;55.762;37.780;2023-11-21T10:09:28;99613.69;;;-4.32;57.55
82784;BME280;72520;55.762;37.780;2023-11-21T10:12:32;99616.16;;;-4.22;58.44
82784;BME280;72520;55.762;37.780;2023-11-21T10:15:35;99617.09;;;-4.27;57.67
82784;BME280;72520;55.762;37.780;2023-11-21T10:18:39;99615.31;;;-4.24;58.01
82784;BME280;72520;55.762;37.780;2023-11-21T10:21:42;99605.88;;;-4.31;58.50
82784;BME280;72520;55.762;37.780;2023-11-21T10:24:45;99617.81;;;-4.15;57.73
82784;BME280;72520;55.762;37.780;2023-11-21T10:27:48;99604.91;;;-4.19;58.23
82784;BME280;72520;55.762;37.780;2023-11-21T10:30:53;99602.28;;;-4.18;58.29
82784;BME280;72520;55.762;37.780;2023-11-21T10:34:13;99606.81;;;-4.41;59.26
82784;BME280;72520;55.762;37.780;2023-11-21T10:37:16;99603.38;;;-4.40;58.31
82784;BME280;72520;55.762;37.780;2023-11-21T10:40:20;99605.94;;;-4.38;59.07
82784;BME280;72520;55.762;37.780;2023-11-21T10:43:25;99604.94;;;-4.25;58.78
82784;BME280;72520;55.762;37.780;2023-11-21T10:46:27;99604.81;;;-4.12;58.50
82784;BME280;72520;55.762;37.780;2023-11-21T10:49:33;99604.81;;;-4.08;58.35
82784;BME280;72520;55.762;37.780;2023-11-21T10:52:39;99609.09;;;-4.06;57.74
82784;BME280;72520;55.762;37.780;2023-11-21T10:55:44;99613.34;;;-4.00;58.54
82784;BME280;72520;55.762;37.780;2023-11-21T10:58:49;99607.44;;;-4.15;58.25
82784;BME280;72520;55.762;37.780;2023-11-21T11:01:51;99607.41;;;-4.12;59.88
82784;BME280;72520;55.762;37.780;2023-11-21T11:04:57;99611.00;;;-4.25;58.21
82784;BME280;72520;55.762;37.780;2023-11-21T11:08:04;99613.56;;;-4.22;58.56
82784;BME280;72520;55.762;37.780;2023-11-21T11:11:07;99610.13;;;-4.25;58.17
82784;BME280;72520;55.762;37.780;2023-11-21T11:14:11;99620.56;;;-4.28;58.05
82784;BME280;72520;55.762;37.780;2023-11-21T11:17:14;99618.22;;;-4.57;59.98
82784;BME280;72520;55.762;37.780;2023-11-21T11:20:18;99621.63;;;-4.50;58.78
82784;BME280;72520;55.762;37.780;2023-11-21T11:23:40;99622.38;;;-4.36;59.03
82784;BME280;72520;55.762;37.780;2023-11-21T11:26:51;99634.56;;;-4.43;59.28
82784;BME280;72520;55.762;37.780;2023-11-21T11:29:59;99630.03;;;-4.23;58.98
82784;BME280;72520;55.762;37.780;2023-11-21T11:33:10;99633.50;;;-4.25;58.28
82784;BME280;72520;55.762;37.780;2023-11-21T11:36:25;99643.09;;;-4.32;58.73
82784;BME280;72520;55.762;37.780;2023-11-21T11:39:34;99647.50;;;-4.40;59.50
82784;BME280;72520;55.762;37.780;2023-11-21T11:42:37;99649.13;;;-4.27;59.05
82784;BME280;72520;55.762;37.780;2023-11-21T11:45:40;99639.50;;;-4.16;58.79
82784;BME280;72520;55.762;37.780;2023-11-21T11:48:44;99635.38;;;-4.36;57.79
82784;BME280;72520;55.762;37.780;2023-11-21T11:52:33;99637.00;;;-4.28;58.14
82784;BME280;72520;55.762;37.780;2023-11-21T11:55:36;99649.22;;;-4.39;57.97
82784;BME280;72520;55.762;37.780;2023-11-21T11:58:39;99643.13;;;-4.35;59.09
82784;BME280;72520;55.762;37.780;2023-11-21T12:01:45;99642.13;;;-4.19;57.88
82784;BME280;72520;55.762;37.780;2023-11-21T12:04:49;99646.59;;;-4.33;58.81
82784;BME280;72520;55.762;37.780;2023-11-21T12:07:54;99648.25;;;-4.27;58.36
82784;BME280;72520;55.762;37.780;2023-11-21T12:10:58;99645.50;;;-4.11;58.04
82784;BME280;72520;55.762;37.780;2023-11-21T12:14:01;99645.41;;;-3.98;59.74
82784;BME280;72520;55.762;37.780;2023-11-21T12:17:06;99648.22;;;-4.23;58.12
82784;BME280;72520;55.762;37.780;2023-11-21T12:20:11;99654.41;;;-4.37;58.20
82784;BME280;72520;55.762;37.780;2023-11-21T12:23:20;99648.34;;;-4.38;58.75
82784;BME280;72520;55.762;37.780;2023-11-21T12:26:24;99664.75;;;-4.31;58.91
82784;BME280;72520;55.762;37.780;2023-11-21T12:29:26;99663.75;;;-4.15;58.88
82784;BME280;72520;55.762;37.780;2023-11-21T12:32:30;99652.53;;;-4.22;57.72
82784;BME280;72520;55.762;37.780;2023-11-21T12:35:34;99662.06;;;-4.19;57.41
82784;BME280;72520;55.762;37.780;2023-11-21T12:38:39;99656.91;;;-4.28;57.87
82784;BME280;72520;55.762;37.780;2023-11-21T12:41:43;99657.69;;;-4.17;57.42
82784;BME280;72520;55.762;37.780;2023-11-21T12:44:46;99663.72;;;-4.14;58.15
82784;BME280;72520;55.762;37.780;2023-11-21T12:47:50;99657.59;;;-4.05;56.25
82784;BME280;72520;55.762;37.780;2023-11-21T12:50:55;99666.41;;;-4.23;56.77
82784;BME280;72520;55.762;37.780;2023-11-21T12:54:17;99664.75;;;-4.31;57.63
82784;BME280;72520;55.762;37.780;2023-11-21T12:57:20;99672.44;;;-4.19;57.44
82784;BME280;72520;55.762;37.780;2023-11-21T13:00:29;99665.53;;;-4.22;57.38
82784;BME280;72520;55.762;37.780;2023-11-21T13:03:34;99669.06;;;-4.29;57.62
82784;BME280;72520;55.762;37.780;2023-11-21T13:06:38;99667.28;;;-4.24;57.67
82784;BME280;72520;55.762;37.780;2023-11-21T13:09:44;99676.00;;;-4.31;58.74
82784;BME280;72520;55.762;37.780;2023-11-21T13:12:47;99681.25;;;-4.37;58.73
82784;BME280;72520;55.762;37.780;2023-11-21T13:15:50;99688.28;;;-4.51;58.18
82784;BME280;72520;55.762;37.780;2023-11-21T13:18:53;99701.22;;;-4.45;58.06
82784;BME280;72520;55.762;37.780;2023-11-21T13:21:56;99689.97;;;-4.48;57.69
82784;BME280;72520;55.762;37.780;2023-11-21T13:25:01;99694.31;;;-4.46;57.87
82784;BME280;72520;55.762;37.780;2023-11-21T13:28:08;99697.78;;;-4.47;57.61
82784;BME280;72520;55.762;37.780;2023-11-21T13:31:12;99706.56;;;-4.66;59.13
82784;BME280;72520;55.762;37.780;2023-11-21T13:34:27;99708.25;;;-4.62;57.68
82784;BME280;72520;55.762;37.780;2023-11-21T13:37:30;99710.88;;;-4.64;58.12
82784;BME280;72520;55.762;37.780;2023-11-21T13:40:35;99713.47;;;-4.64;58.40
82784;BME280;72520;55.762;37.780;2023-11-21T13:43:44;99706.53;;;-4.60;58.19
82784;BME280;72520;55.762;37.780;2023-11-21T13:46:52;99712.59;;;-4.66;59.23
82784;BME280;72520;55.762;37.780;2023-11-21T13:49:54;99709.16;;;-4.66;58.65
82784;BME280;72520;55.762;37.780;2023-11-21T13:52:58;99722.19;;;-4.78;58.97
82784;BME280;72520;55.762;37.780;2023-11-21T13:56:06;99723.97;;;-4.83;59.47
82784;BME280;72520;55.762;37.780;2023-11-21T13:59:09;99721.38;;;-4.83;59.25
82784;BME280;72520;55.762;37.780;2023-11-21T14:02:20;99726.53;;;-4.79;58.98
82784;BME280;72520;55.762;37.780;2023-11-21T14:05:33;99729.09;;;-4.76;59.01
82784;BME280;72520;55.762;37.780;2023-11-21T14:08:36;99741.22;;;-4.70;58.97
82784;BME280;72520;55.762;37.780;2023-11-21T14:11:41;99742.09;;;-4.74;59.86
82784;BME280;72520;55.762;37.780;2023-11-21T14:14:45;99749.88;;;-4.77;59.79
82784;BME280;72520;55.762;37.780;2023-11-21T14:17:48;99760.31;;;-4.89;60.32
82784;BME280;72520;55.762;37.780;2023-11-21T14:20:51;99755.13;;;-4.88;60.22
82784;BME280;72520;55.762;37.780;2023-11-21T14:23:53;99763.81;;;-4.90;60.77
82784;BME280;72520;55.762;37.780;2023-11-21T14:26:58;99770.69;;;-4.85;60.65
82784;BME280;72520;55.762;37.780;2023-11-21T14:30:01;99768.09;;;-4.86;60.80
82784;BME280;72520;55.762;37.780;2023-11-21T14:33:06;99775.00;;;-4.84;60.04
82784;BME280;72520;55.762;37.780;2023-11-21T14:36:10;99768.09;;;-4.86;59.49
82784;BME280;72520;55.762;37.780;2023-11-21T14:39:12;99769.03;;;-5.02;60.24
82784;BME280;72520;55.762;37.780;2023-11-21T14:42:25;99778.56;;;-5.14;60.54
82784;BME280;72520;55.762;37.780;2023-11-21T14:45:31;99772.50;;;-5.09;60.78
82784;BME280;72520;55.762;37.780;2023-11-21T14:48:33;99779.47;;;-5.24;61.21
82784;BME280;72520;55.762;37.780;2023-11-21T14:51:48;99773.53;;;-5.65;62.00
82784;BME280;72520;55.762;37.780;2023-11-21T14:55:01;99776.13;;;-5.73;62.73
82784;BME280;72520;55.762;37.780;2023-11-21T14:58:26;99778.69;;;-5.56;62.40
82784;BME280;72520;55.762;37.780;2023-11-21T15:01:31;99778.66;;;-5.35;61.51
82784;BME280;72520;55.762;37.780;2023-11-21T15:04:45;99778.59;;;-5.23;61.58
82784;BME280;72520;55.762;37.780;2023-11-21T15:07:49;99783.81;;;-5.21;60.91
82784;BME280;72520;55.762;37.780;2023-11-21T15:10:51;99794.13;;;-5.12;61.39
82784;BME280;72520;55.762;37.780;2023-11-21T15:13:57;99801.03;;;-5.09;61.38
82784;BME280;72520;55.762;37.780;2023-11-21T15:16:59;99794.16;;;-5.15;61.72
82784;BME280;72520;55.762;37.780;2023-11-21T15:20:05;99797.63;;;-5.18;61.41
82784;BME280;72520;55.762;37.780;2023-11-21T15:23:09;99797.63;;;-5.15;61.88
82784;BME280;72520;55.762;37.780;2023-11-21T15:26:13;99796.78;;;-5.33;63.24
82784;BME280;72520;55.762;37.780;2023-11-21T15:29:17;99790.69;;;-5.19;62.58
82784;BME280;72520;55.762;37.780;2023-11-21T15:32:22;99795.03;;;-5.25;62.41
82784;BME280;72520;55.762;37.780;2023-11-21T15:35:24;99802.84;;;-5.31;62.63
82784;BME280;72520;55.762;37.780;2023-11-21T15:38:29;99796.81;;;-5.38;62.65
82784;BME280;72520;55.762;37.780;2023-11-21T15:41:31;99794.19;;;-5.36;62.78
82784;BME280;72520;55.762;37.780;2023-11-21T15:44:35;99802.84;;;-5.33;62.85
82784;BME280;72520;55.762;37.780;2023-11-21T15:47:39;99795.94;;;-5.35;63.03
82784;BME280;72520;55.762;37.780;2023-11-21T15:50:42;99797.63;;;-5.30;63.45
82784;BME280;72520;55.762;37.780;2023-11-21T15:53:45;99796.78;;;-5.32;63.51
82784;BME280;72520;55.762;37.780;2023-11-21T15:56:48;99808.91;;;-5.31;62.71
82784;BME280;72520;55.762;37.780;2023-11-21T15:59:52;99795.94;;;-5.31;62.95
82784;BME280;72520;55.762;37.780;2023-11-21T16:02:55;99796.78;;;-5.33;62.84
82784;BME280;72520;55.762;37.780;2023-11-21T16:05:58;99797.63;;;-5.30;62.55